sensor_id;sensor_type;location;lat;lon;timestamp;pressure;altitude;pressure_sealevel;temperature;humidity
55271;BME280;41132;47.162;9.470;2023-03-18T00:00:41;96160.69;;;7.67;100.00
55271;BME280;41132;47.162;9.470;2023-03-18T00:03:06;96172.63;;;7.69;100.00
55271;BME280;41132;47.162;9.470;2023-03-18T00:05:33;96167.22;;;7.81;100.00
55271;BME280;41132;47.162;9.470;2023-03-18T00:07:59;96173.63;;;7.68;100.00
55271;BME280;41132;47.162;9.470;2023-03-18T00:10:26;96167.47;;;7.60;100.00
55271;BME280;41132;47.162;9.470;2023-03-18T00:12:51;96180.59;;;7.50;100.00
55271;BME280;41132;47.162;9.470;2023-03-18T00:15:18;96175.38;;;7.50;100.00
55271;BME280;41132;47.162;9.470;2023-03-18T00:17:44;96162.00;;;7.25;100.00
55271;BME280;41132;47.162;9.470;2023-03-18T00:20:11;96187.88;;;7.46;100.00
55271;BME280;41132;47.162;9.470;2023-03-18T00:22:39;96190.66;;;7.35;100.00
55271;BME280;41132;47.162;9.470;2023-03-18T00:25:06;96189.97;;;7.33;100.00
55271;BME280;41132;47.162;9.470;2023-03-18T00:27:34;96179.41;;;7.35;100.00
55271;BME280;41132;47.162;9.470;2023-03-18T00:30:00;96183.19;;;7.50;100.00
55271;BME280;41132;47.162;9.470;2023-03-18T00:32:26;96196.00;;;7.43;100.00
55271;BME280;41132;47.162;9.470;2023-03-18T00:34:52;96193.13;;;7.37;100.00
55271;BME280;41132;47.162;9.470;2023-03-18T00:37:18;96195.63;;;7.38;100.00
55271;BME280;41132;47.162;9.470;2023-03-18T00:39:56;96208.25;;;7.43;100.00
55271;BME280;41132;47.162;9.470;2023-03-18T00:42:22;96205.63;;;7.43;100.00
55271;BME280;41132;47.162;9.470;2023-03-18T00:44:48;96206.31;;;7.35;100.00
55271;BME280;41132;47.162;9.470;2023-03-18T00:47:13;96206.72;;;7.40;100.00
55271;BME280;41132;47.162;9.470;2023-03-18T00:49:38;96191.16;;;7.48;100.00
55271;BME280;41132;47.162;9.470;2023-03-18T00:52:04;96209.31;;;7.50;100.00
55271;BME280;41132;47.162;9.470;2023-03-18T00:54:29;96208.19;;;7.52;100.00
55271;BME280;41132;47.162;9.470;2023-03-18T00:56:55;96214.81;;;7.47;100.00
55271;BME280;41132;47.162;9.470;2023-03-18T00:59:22;96217.41;;;7.57;100.00
55271;BME280;41132;47.162;9.470;2023-03-18T01:01:48;96209.13;;;7.61;100.00
55271;BME280;41132;47.162;9.470;2023-03-18T01:04:14;96213.56;;;7.79;100.00
55271;BME280;41132;47.162;9.470;2023-03-18T01:06:39;96209.44;;;7.48;100.00
55271;BME280;41132;47.162;9.470;2023-03-18T01:09:05;96211.53;;;7.45;100.00
55271;BME280;41132;47.162;9.470;2023-03-18T01:11:33;96185.06;;;7.30;100.00
55271;BME280;41132;47.162;9.470;2023-03-18T01:13:59;96211.72;;;7.24;100.00
55271;BME280;41132;47.162;9.470;2023-03-18T01:16:25;96207.47;;;7.23;100.00
55271;BME280;41132;47.162;9.470;2023-03-18T01:18:51;96204.88;;;7.23;100.00
55271;BME280;41132;47.162;9.470;2023-03-18T01:21:16;96201.72;;;7.19;100.00
55271;BME280;41132;47.162;9.470;2023-03-18T01:23:42;96202.28;;;7.13;100.00
55271;BME280;41132;47.162;9.470;2023-03-18T01:26:08;96195.19;;;7.33;100.00
55271;BME280;41132;47.162;9.470;2023-03-18T01:28:35;96205.13;;;7.29;100.00
55271;BME280;41132;47.162;9.470;2023-03-18T01:31:01;96200.50;;;7.04;100.00
55271;BME280;41132;47.162;9.470;2023-03-18T01:33:26;96193.66;;;7.03;100.00
55271;BME280;41132;47.162;9.470;2023-03-18T01:35:55;96202.69;;;7.08;100.00
55271;BME280;41132;47.162;9.470;2023-03-18T01:38:22;96202.97;;;7.05;100.00
55271;BME280;41132;47.162;9.470;2023-03-18T01:40:48;96198.63;;;6.86;100.00
55271;BME280;41132;47.162;9.470;2023-03-18T01:43:21;96191.06;;;6.83;100.00
55271;BME280;41132;47.162;9.470;2023-03-18T01:45:50;96196.72;;;6.88;100.00
55271;BME280;41132;47.162;9.470;2023-03-18T01:48:19;96191.34;;;6.80;100.00
55271;BME280;41132;47.162;9.470;2023-03-18T01:50:49;96186.53;;;6.85;100.00
55271;BME280;41132;47.162;9.470;2023-03-18T01:53:17;96192.44;;;6.87;100.00
55271;BME280;41132;47.162;9.470;2023-03-18T01:55:46;96196.97;;;6.85;100.00
55271;BME280;41132;47.162;9.470;2023-03-18T01:58:25;96195.47;;;6.83;100.00
55271;BME280;41132;47.162;9.470;2023-03-18T02:00:56;96189.28;;;6.94;100.00
55271;BME280;41132;47.162;9.470;2023-03-18T02:03:24;96185.81;;;7.03;100.00
55271;BME280;41132;47.162;9.470;2023-03-18T02:05:51;96177.88;;;7.04;100.00
55271;BME280;41132;47.162;9.470;2023-03-18T02:08:17;96184.41;;;7.08;100.00
55271;BME280;41132;47.162;9.470;2023-03-18T02:10:43;96192.56;;;6.96;100.00
55271;BME280;41132;47.162;9.470;2023-03-18T02:13:10;96194.25;;;6.77;100.00
55271;BME280;41132;47.162;9.470;2023-03-18T02:15:43;96190.13;;;6.65;100.00
55271;BME280;41132;47.162;9.470;2023-03-18T02:18:14;96191.41;;;6.61;100.00
55271;BME280;41132;47.162;9.470;2023-03-18T02:28:35;96204.97;;;6.55;100.00
55271;BME280;41132;47.162;9.470;2023-03-18T02:31:04;96212.53;;;6.48;100.00
55271;BME280;41132;47.162;9.470;2023-03-18T02:33:35;96212.38;;;6.40;100.00
55271;BME280;41132;47.162;9.470;2023-03-18T02:36:06;96212.25;;;6.71;100.00
55271;BME280;41132;47.162;9.470;2023-03-18T02:38:33;96204.28;;;6.62;100.00
55271;BME280;41132;47.162;9.470;2023-03-18T02:40:59;96220.06;;;6.51;100.00
55271;BME280;41132;47.162;9.470;2023-03-18T02:43:28;96209.22;;;6.56;100.00
55271;BME280;41132;47.162;9.470;2023-03-18T02:46:26;96217.59;;;6.50;100.00
55271;BME280;41132;47.162;9.470;2023-03-18T02:48:55;96219.66;;;6.46;100.00
55271;BME280;41132;47.162;9.470;2023-03-18T02:51:21;96221.03;;;6.50;100.00
55271;BME280;41132;47.162;9.470;2023-03-18T02:53:47;96222.81;;;6.50;100.00
55271;BME280;41132;47.162;9.470;2023-03-18T02:56:13;96220.63;;;6.55;100.00
55271;BME280;41132;47.162;9.470;2023-03-18T02:58:40;96221.69;;;6.42;100.00
55271;BME280;41132;47.162;9.470;2023-03-18T03:01:06;96222.25;;;6.36;100.00
55271;BME280;41132;47.162;9.470;2023-03-18T03:03:33;96230.38;;;6.43;100.00
55271;BME280;41132;47.162;9.470;2023-03-18T03:06:00;96225.56;;;6.58;100.00
55271;BME280;41132;47.162;9.470;2023-03-18T03:08:26;96229.13;;;6.57;100.00
55271;BME280;41132;47.162;9.470;2023-03-18T03:10:52;96223.38;;;6.43;100.00
55271;BME280;41132;47.162;9.470;2023-03-18T03:13:19;96228.97;;;6.39;100.00
55271;BME280;41132;47.162;9.470;2023-03-18T03:15:45;96222.53;;;6.53;100.00
55271;BME280;41132;47.162;9.470;2023-03-18T03:18:11;96230.34;;;6.53;100.00
55271;BME280;41132;47.162;9.470;2023-03-18T03:20:36;96219.25;;;6.41;100.00
55271;BME280;41132;47.162;9.470;2023-03-18T03:23:07;96225.00;;;6.44;100.00
55271;BME280;41132;47.162;9.470;2023-03-18T03:25:34;96232.81;;;6.35;100.00
55271;BME280;41132;47.162;9.470;2023-03-18T03:28:00;96229.13;;;6.57;100.00
55271;BME280;41132;47.162;9.470;2023-03-18T03:30:25;96239.28;;;6.60;100.00
55271;BME280;41132;47.162;9.470;2023-03-18T03:32:51;96242.56;;;6.72;100.00
55271;BME280;41132;47.162;9.470;2023-03-18T03:35:18;96247.78;;;6.72;100.00
55271;BME280;41132;47.162;9.470;2023-03-18T03:37:44;96246.16;;;6.61;100.00
55271;BME280;41132;47.162;9.470;2023-03-18T03:42:41;96234.59;;;6.44;100.00
55271;BME280;41132;47.162;9.470;2023-03-18T03:45:08;96232.16;;;6.52;100.00
55271;BME280;41132;47.162;9.470;2023-03-18T03:47:33;96235.56;;;6.72;100.00
55271;BME280;41132;47.162;9.470;2023-03-18T03:49:59;96218.28;;;6.61;100.00
55271;BME280;41132;47.162;9.470;2023-03-18T03:52:25;96232.00;;;6.44;100.00
55271;BME280;41132;47.162;9.470;2023-03-18T03:54:50;96233.38;;;6.48;100.00
55271;BME280;41132;47.162;9.470;2023-03-18T03:57:16;96209.31;;;6.15;100.00
55271;BME280;41132;47.162;9.470;2023-03-18T03:59:42;96234.84;;;6.31;100.00
55271;BME280;41132;47.162;9.470;2023-03-18T04:02:08;96245.03;;;6.34;100.00
55271;BME280;41132;47.162;9.470;2023-03-18T04:04:34;96245.28;;;6.31;100.00
55271;BME280;41132;47.162;9.470;2023-03-18T04:06:59;96237.47;;;6.31;100.00
55271;BME280;41132;47.162;9.470;2023-03-18T04:09:25;96225.81;;;6.35;100.00
55271;BME280;41132;47.162;9.470;2023-03-18T04:11:51;96222.81;;;6.30;100.00
55271;BME280;41132;47.162;9.470;2023-03-18T04:14:16;96245.72;;;6.36;100.00
55271;BME280;41132;47.162;9.470;2023-03-18T04:16:42;96246.41;;;6.38;100.00
55271;BME280;41132;47.162;9.470;2023-03-18T04:19:09;96242.56;;;6.42;100.00
55271;BME280;41132;47.162;9.470;2023-03-18T04:21:34;96242.84;;;6.59;100.00
55271;BME280;41132;47.162;9.470;2023-03-18T04:24:01;96251.22;;;6.43;100.00
55271;BME280;41132;47.162;9.470;2023-03-18T04:26:28;96244.75;;;6.27;100.00
55271;BME280;41132;47.162;9.470;2023-03-18T04:28:55;96234.03;;;6.40;100.00
55271;BME280;41132;47.162;9.470;2023-03-18T04:31:20;96239.81;;;6.44;100.00
55271;BME280;41132;47.162;9.470;2023-03-18T04:33:46;96229.97;;;6.47;100.00
55271;BME280;41132;47.162;9.470;2023-03-18T04:36:12;96232.00;;;6.63;100.00
55271;BME280;41132;47.162;9.470;2023-03-18T04:38:37;96233.22;;;6.40;100.00
55271;BME280;41132;47.162;9.470;2023-03-18T04:41:03;96225.25;;;6.22;100.00
55271;BME280;41132;47.162;9.470;2023-03-18T04:43:30;96230.47;;;6.22;100.00
55271;BME280;41132;47.162;9.470;2023-03-18T04:45:55;96234.19;;;6.39;100.00
55271;BME280;41132;47.162;9.470;2023-03-18T04:48:22;96229.94;;;6.38;100.00
55271;BME280;41132;47.162;9.470;2023-03-18T04:50:48;96228.16;;;6.38;100.00
55271;BME280;41132;47.162;9.470;2023-03-18T04:53:14;96231.31;;;6.32;100.00
55271;BME280;41132;47.162;9.470;2023-03-18T04:55:41;96235.53;;;6.14;100.00
55271;BME280;41132;47.162;9.470;2023-03-18T04:58:08;96241.97;;;6.10;100.00
55271;BME280;41132;47.162;9.470;2023-03-18T05:00:34;96235.25;;;5.97;100.00
55271;BME280;41132;47.162;9.470;2023-03-18T05:02:59;96236.53;;;5.92;100.00
55271;BME280;41132;47.162;9.470;2023-03-18T05:05:26;96246.78;;;5.83;100.00
55271;BME280;41132;47.162;9.470;2023-03-18T05:07:51;96231.72;;;5.77;100.00
55271;BME280;41132;47.162;9.470;2023-03-18T05:10:17;96235.25;;;6.07;100.00
55271;BME280;41132;47.162;9.470;2023-03-18T05:12:43;96238.16;;;6.33;100.00
55271;BME280;41132;47.162;9.470;2023-03-18T05:15:09;96242.50;;;6.03;100.00
55271;BME280;41132;47.162;9.470;2023-03-18T05:17:35;96237.44;;;6.02;100.00
55271;BME280;41132;47.162;9.470;2023-03-18T05:20:01;96237.03;;;6.06;100.00
55271;BME280;41132;47.162;9.470;2023-03-18T05:22:28;96242.78;;;6.10;100.00
55271;BME280;41132;47.162;9.470;2023-03-18T05:24:53;96234.28;;;6.08;100.00
55271;BME280;41132;47.162;9.470;2023-03-18T05:27:19;96241.16;;;6.09;100.00
55271;BME280;41132;47.162;9.470;2023-03-18T05:29:45;96246.66;;;6.16;100.00
55271;BME280;41132;47.162;9.470;2023-03-18T05:32:11;96238.97;;;6.14;100.00
55271;BME280;41132;47.162;9.470;2023-03-18T05:34:40;96245.78;;;6.05;100.00
55271;BME280;41132;47.162;9.470;2023-03-18T05:37:08;96239.84;;;5.94;100.00
55271;BME280;41132;47.162;9.470;2023-03-18T05:39:34;96244.47;;;5.80;100.00
55271;BME280;41132;47.162;9.470;2023-03-18T05:42:00;96239.53;;;5.77;100.00
55271;BME280;41132;47.162;9.470;2023-03-18T05:44:26;96238.44;;;5.80;100.00
55271;BME280;41132;47.162;9.470;2023-03-18T05:46:53;96241.56;;;5.74;100.00
55271;BME280;41132;47.162;9.470;2023-03-18T05:49:19;96244.78;;;5.56;100.00
55271;BME280;41132;47.162;9.470;2023-03-18T05:51:45;96234.47;;;5.45;100.00
55271;BME280;41132;47.162;9.470;2023-03-18T05:54:14;96245.88;;;5.54;100.00
55271;BME280;41132;47.162;9.470;2023-03-18T05:56:40;96247.69;;;5.63;100.00
55271;BME280;41132;47.162;9.470;2023-03-18T05:59:07;96243.88;;;5.67;100.00
55271;BME280;41132;47.162;9.470;2023-03-18T06:01:34;96248.53;;;5.63;100.00
55271;BME280;41132;47.162;9.470;2023-03-18T06:04:00;96242.78;;;5.70;100.00
55271;BME280;41132;47.162;9.470;2023-03-18T06:06:26;96243.13;;;5.86;100.00
55271;BME280;41132;47.162;9.470;2023-03-18T06:08:52;96250.66;;;5.89;100.00
55271;BME280;41132;47.162;9.470;2023-03-18T06:11:18;96244.75;;;5.87;100.00
55271;BME280;41132;47.162;9.470;2023-03-18T06:13:43;96233.31;;;5.59;100.00
55271;BME280;41132;47.162;9.470;2023-03-18T06:16:10;96251.13;;;5.63;100.00
55271;BME280;41132;47.162;9.470;2023-03-18T06:18:36;96245.47;;;5.58;100.00
55271;BME280;41132;47.162;9.470;2023-03-18T06:21:02;96249.06;;;5.67;100.00
55271;BME280;41132;47.162;9.470;2023-03-18T06:23:28;96247.84;;;5.71;100.00
55271;BME280;41132;47.162;9.470;2023-03-18T06:25:53;96251.84;;;5.75;100.00
55271;BME280;41132;47.162;9.470;2023-03-18T06:28:19;96250.59;;;5.70;100.00
55271;BME280;41132;47.162;9.470;2023-03-18T06:30:45;96252.38;;;5.69;100.00
55271;BME280;41132;47.162;9.470;2023-03-18T06:33:10;96251.72;;;5.77;100.00
55271;BME280;41132;47.162;9.470;2023-03-18T06:35:36;96247.59;;;5.74;100.00
55271;BME280;41132;47.162;9.470;2023-03-18T06:38:01;96249.00;;;5.88;100.00
55271;BME280;41132;47.162;9.470;2023-03-18T06:40:27;96236.13;;;5.86;100.00
55271;BME280;41132;47.162;9.470;2023-03-18T06:42:52;96239.25;;;5.80;100.00
55271;BME280;41132;47.162;9.470;2023-03-18T06:45:18;96248.63;;;5.93;100.00
55271;BME280;41132;47.162;9.470;2023-03-18T06:47:43;96251.13;;;5.94;100.00
55271;BME280;41132;47.162;9.470;2023-03-18T06:50:10;96256.41;;;6.23;100.00
55271;BME280;41132;47.162;9.470;2023-03-18T06:52:36;96247.91;;;6.41;100.00
55271;BME280;41132;47.162;9.470;2023-03-18T06:55:02;96254.50;;;6.64;100.00
55271;BME280;41132;47.162;9.470;2023-03-18T06:57:28;96257.38;;;7.00;100.00
55271;BME280;41132;47.162;9.470;2023-03-18T06:59:54;96259.31;;;6.98;100.00
55271;BME280;41132;47.162;9.470;2023-03-18T07:02:19;96250.47;;;7.19;100.00
55271;BME280;41132;47.162;9.470;2023-03-18T07:04:48;96252.28;;;7.93;100.00
55271;BME280;41132;47.162;9.470;2023-03-18T07:07:13;96245.00;;;8.14;100.00
55271;BME280;41132;47.162;9.470;2023-03-18T07:09:38;96247.59;;;7.97;100.00
55271;BME280;41132;47.162;9.470;2023-03-18T07:12:05;96238.38;;;7.92;100.00
55271;BME280;41132;47.162;9.470;2023-03-18T07:14:30;96251.84;;;8.25;100.00
55271;BME280;41132;47.162;9.470;2023-03-18T07:16:56;96247.50;;;8.16;100.00
55271;BME280;41132;47.162;9.470;2023-03-18T07:19:21;96234.78;;;8.49;100.00
55271;BME280;41132;47.162;9.470;2023-03-18T07:21:47;96253.84;;;8.77;97.23
55271;BME280;41132;47.162;9.470;2023-03-18T07:24:14;96255.25;;;8.89;98.50
55271;BME280;41132;47.162;9.470;2023-03-18T07:26:41;96246.84;;;9.04;98.37
55271;BME280;41132;47.162;9.470;2023-03-18T07:29:06;96246.22;;;9.28;95.40
55271;BME280;41132;47.162;9.470;2023-03-18T07:31:32;96252.41;;;9.53;88.77
55271;BME280;41132;47.162;9.470;2023-03-18T07:33:57;96256.00;;;10.20;76.86
55271;BME280;41132;47.162;9.470;2023-03-18T07:36:23;96251.88;;;10.69;75.03
55271;BME280;41132;47.162;9.470;2023-03-18T07:38:49;96251.88;;;10.69;74.08
55271;BME280;41132;47.162;9.470;2023-03-18T07:41:15;96249.94;;;11.12;71.93
55271;BME280;41132;47.162;9.470;2023-03-18T07:43:40;96264.69;;;11.29;67.49
55271;BME280;41132;47.162;9.470;2023-03-18T07:46:09;96252.66;;;11.67;61.05
55271;BME280;41132;47.162;9.470;2023-03-18T07:48:34;96250.28;;;11.89;63.72
55271;BME280;41132;47.162;9.470;2023-03-18T07:51:00;96252.91;;;12.28;59.50
55271;BME280;41132;47.162;9.470;2023-03-18T07:53:26;96259.47;;;12.32;56.75
55271;BME280;41132;47.162;9.470;2023-03-18T07:55:52;96246.97;;;12.66;55.90
55271;BME280;41132;47.162;9.470;2023-03-18T07:58:18;96248.06;;;12.71;57.67
55271;BME280;41132;47.162;9.470;2023-03-18T08:00:43;96244.19;;;12.36;60.01
55271;BME280;41132;47.162;9.470;2023-03-18T08:03:11;96248.81;;;12.80;56.86
55271;BME280;41132;47.162;9.470;2023-03-18T08:05:38;96258.72;;;13.01;59.02
55271;BME280;41132;47.162;9.470;2023-03-18T08:08:03;96253.75;;;13.44;56.78
55271;BME280;41132;47.162;9.470;2023-03-18T08:10:29;96257.56;;;13.42;52.97
55271;BME280;41132;47.162;9.470;2023-03-18T08:12:56;96250.22;;;13.37;52.70
55271;BME280;41132;47.162;9.470;2023-03-18T08:15:22;96253.03;;;13.35;54.90
55271;BME280;41132;47.162;9.470;2023-03-18T08:17:48;96248.75;;;13.11;56.80
55271;BME280;41132;47.162;9.470;2023-03-18T08:20:14;96248.31;;;13.31;54.17
55271;BME280;41132;47.162;9.470;2023-03-18T08:22:39;96248.03;;;13.41;53.78
55271;BME280;41132;47.162;9.470;2023-03-18T08:25:05;96245.81;;;13.67;53.10
55271;BME280;41132;47.162;9.470;2023-03-18T08:27:30;96252.19;;;13.88;52.83
55271;BME280;41132;47.162;9.470;2023-03-18T08:29:56;96255.16;;;14.51;51.77
55271;BME280;41132;47.162;9.470;2023-03-18T08:32:22;96252.28;;;14.60;52.46
55271;BME280;41132;47.162;9.470;2023-03-18T08:34:48;96255.47;;;14.56;49.94
55271;BME280;41132;47.162;9.470;2023-03-18T08:37:14;96244.34;;;14.46;50.63
55271;BME280;41132;47.162;9.470;2023-03-18T08:39:39;96256.78;;;14.67;51.54
55271;BME280;41132;47.162;9.470;2023-03-18T08:42:06;96262.84;;;14.60;51.86
55271;BME280;41132;47.162;9.470;2023-03-18T08:44:31;96256.06;;;14.73;50.12
55271;BME280;41132;47.162;9.470;2023-03-18T08:46:57;96253.59;;;14.71;50.38
55271;BME280;41132;47.162;9.470;2023-03-18T08:49:23;96249.31;;;14.92;48.62
55271;BME280;41132;47.162;9.470;2023-03-18T08:51:49;96249.16;;;15.15;49.78
55271;BME280;41132;47.162;9.470;2023-03-18T08:54:15;96253.47;;;15.01;48.69
55271;BME280;41132;47.162;9.470;2023-03-18T08:56:41;96242.03;;;15.15;48.89
55271;BME280;41132;47.162;9.470;2023-03-18T08:59:07;96222.09;;;15.13;48.77
55271;BME280;41132;47.162;9.470;2023-03-18T09:01:33;96217.38;;;15.08;48.24
55271;BME280;41132;47.162;9.470;2023-03-18T09:03:58;96224.97;;;15.18;48.61
55271;BME280;41132;47.162;9.470;2023-03-18T09:06:24;96216.28;;;15.24;48.40
55271;BME280;41132;47.162;9.470;2023-03-18T09:08:49;96217.09;;;15.24;51.12
55271;BME280;41132;47.162;9.470;2023-03-18T09:11:15;96222.53;;;15.44;48.37
55271;BME280;41132;47.162;9.470;2023-03-18T09:13:41;96219.50;;;15.48;52.97
55271;BME280;41132;47.162;9.470;2023-03-18T09:16:07;96223.09;;;15.68;49.31
55271;BME280;41132;47.162;9.470;2023-03-18T09:18:32;96207.66;;;16.06;46.36
55271;BME280;41132;47.162;9.470;2023-03-18T09:20:59;96215.81;;;14.71;50.91
55271;BME280;41132;47.162;9.470;2023-03-18T09:23:25;96211.06;;;14.45;53.09
55271;BME280;41132;47.162;9.470;2023-03-18T09:25:52;96210.66;;;15.34;50.21
55271;BME280;41132;47.162;9.470;2023-03-18T09:28:19;96202.06;;;15.60;48.63
55271;BME280;41132;47.162;9.470;2023-03-18T09:30:45;96192.22;;;15.19;49.28
55271;BME280;41132;47.162;9.470;2023-03-18T09:33:11;96183.03;;;15.08;51.44
55271;BME280;41132;47.162;9.470;2023-03-18T09:35:38;96177.72;;;15.08;51.92
55271;BME280;41132;47.162;9.470;2023-03-18T09:38:04;96177.56;;;15.73;48.89
55271;BME280;41132;47.162;9.470;2023-03-18T09:40:36;96175.03;;;16.61;46.81
55271;BME280;41132;47.162;9.470;2023-03-18T09:46:00;96167.53;;;16.91;44.68
55271;BME280;41132;47.162;9.470;2023-03-18T09:54:11;96150.16;;;15.94;47.79
55271;BME280;41132;47.162;9.470;2023-03-18T09:56:40;96152.78;;;15.87;50.07
55271;BME280;41132;47.162;9.470;2023-03-18T09:59:17;96145.75;;;15.66;47.92
55271;BME280;41132;47.162;9.470;2023-03-18T10:01:47;96142.06;;;15.60;50.33
55271;BME280;41132;47.162;9.470;2023-03-18T10:04:21;96142.69;;;16.04;50.39
55271;BME280;41132;47.162;9.470;2023-03-18T10:06:52;96134.31;;;16.95;46.69
55271;BME280;41132;47.162;9.470;2023-03-18T10:09:42;96145.31;;;16.92;43.24
55271;BME280;41132;47.162;9.470;2023-03-18T10:12:30;96140.38;;;16.62;47.72
55271;BME280;41132;47.162;9.470;2023-03-18T10:15:02;96135.25;;;16.47;48.02
55271;BME280;41132;47.162;9.470;2023-03-18T10:20:31;96135.69;;;17.44;44.48
55271;BME280;41132;47.162;9.470;2023-03-18T10:23:08;96135.53;;;17.19;43.46
55271;BME280;41132;47.162;9.470;2023-03-18T10:33:45;96133.16;;;17.69;41.86
55271;BME280;41132;47.162;9.470;2023-03-18T10:36:16;96131.09;;;17.78;45.45
55271;BME280;41132;47.162;9.470;2023-03-18T10:38:46;96123.84;;;18.05;40.67
55271;BME280;41132;47.162;9.470;2023-03-18T10:41:16;96126.13;;;18.40;41.70
55271;BME280;41132;47.162;9.470;2023-03-18T10:43:45;96127.41;;;17.72;40.95
55271;BME280;41132;47.162;9.470;2023-03-18T10:46:14;96125.00;;;17.58;42.53
55271;BME280;41132;47.162;9.470;2023-03-18T10:48:55;96120.16;;;17.41;42.99
55271;BME280;41132;47.162;9.470;2023-03-18T10:54:00;96110.69;;;17.72;40.27
55271;BME280;41132;47.162;9.470;2023-03-18T10:56:27;96098.56;;;17.96;39.53
55271;BME280;41132;47.162;9.470;2023-03-18T10:58:54;96103.09;;;17.89;37.73
55271;BME280;41132;47.162;9.470;2023-03-18T11:01:22;96106.81;;;17.74;39.44
55271;BME280;41132;47.162;9.470;2023-03-18T11:03:53;96105.72;;;17.24;41.62
55271;BME280;41132;47.162;9.470;2023-03-18T11:09:36;96107.56;;;16.57;46.34
55271;BME280;41132;47.162;9.470;2023-03-18T11:12:22;96104.50;;;16.60;46.40
55271;BME280;41132;47.162;9.470;2023-03-18T11:14:49;96100.44;;;16.70;47.23
55271;BME280;41132;47.162;9.470;2023-03-18T11:17:21;96101.69;;;16.81;49.44
55271;BME280;41132;47.162;9.470;2023-03-18T11:20:21;96095.13;;;16.57;49.45
55271;BME280;41132;47.162;9.470;2023-03-18T11:22:50;96089.97;;;16.16;45.81
55271;BME280;41132;47.162;9.470;2023-03-18T11:25:23;96088.09;;;16.03;46.37
55271;BME280;41132;47.162;9.470;2023-03-18T11:28:02;96086.47;;;15.95;44.57
55271;BME280;41132;47.162;9.470;2023-03-18T11:30:29;96084.00;;;15.87;45.21
55271;BME280;41132;47.162;9.470;2023-03-18T11:35:49;96075.50;;;16.12;47.77
55271;BME280;41132;47.162;9.470;2023-03-18T11:38:19;96077.97;;;16.13;48.93
55271;BME280;41132;47.162;9.470;2023-03-18T11:40:44;96069.19;;;16.06;47.41
55271;BME280;41132;47.162;9.470;2023-03-18T11:43:21;96064.09;;;16.04;50.05
55271;BME280;41132;47.162;9.470;2023-03-18T11:46:02;96063.06;;;16.12;49.69
55271;BME280;41132;47.162;9.470;2023-03-18T11:48:33;96062.88;;;16.14;50.59
55271;BME280;41132;47.162;9.470;2023-03-18T11:53:52;96063.25;;;15.91;51.64
55271;BME280;41132;47.162;9.470;2023-03-18T12:06:59;96052.75;;;15.69;48.61
55271;BME280;41132;47.162;9.470;2023-03-18T12:32:30;96023.72;;;15.76;51.29
55271;BME280;41132;47.162;9.470;2023-03-18T12:43:39;96024.56;;;15.83;48.41
55271;BME280;41132;47.162;9.470;2023-03-18T12:49:02;96010.09;;;15.79;48.38
55271;BME280;41132;47.162;9.470;2023-03-18T12:51:48;96017.22;;;15.85;50.17
55271;BME280;41132;47.162;9.470;2023-03-18T12:54:24;96013.56;;;15.86;51.43
55271;BME280;41132;47.162;9.470;2023-03-18T12:57:04;96012.34;;;15.82;49.29
55271;BME280;41132;47.162;9.470;2023-03-18T12:59:40;96004.41;;;15.82;49.00
55271;BME280;41132;47.162;9.470;2023-03-18T13:04:33;95982.56;;;15.66;48.04
55271;BME280;41132;47.162;9.470;2023-03-18T13:10:22;95992.38;;;15.73;45.92
55271;BME280;41132;47.162;9.470;2023-03-18T13:12:52;95996.41;;;15.69;46.88
55271;BME280;41132;47.162;9.470;2023-03-18T13:15:37;95998.91;;;15.77;46.35
55271;BME280;41132;47.162;9.470;2023-03-18T13:18:14;96000.31;;;15.79;47.03
55271;BME280;41132;47.162;9.470;2023-03-18T13:20:41;95999.72;;;15.77;47.02
55271;BME280;41132;47.162;9.470;2023-03-18T13:23:38;95998.09;;;15.83;47.04
55271;BME280;41132;47.162;9.470;2023-03-18T13:28:53;95989.97;;;15.91;49.12
55271;BME280;41132;47.162;9.470;2023-03-18T13:34:34;95983.88;;;15.97;48.25
55271;BME280;41132;47.162;9.470;2023-03-18T13:43:14;95985.09;;;15.88;46.79
55271;BME280;41132;47.162;9.470;2023-03-18T13:45:48;95978.75;;;15.89;46.98
55271;BME280;41132;47.162;9.470;2023-03-18T13:48:18;95983.44;;;15.94;47.34
55271;BME280;41132;47.162;9.470;2023-03-18T13:50:46;95985.91;;;15.95;49.38
55271;BME280;41132;47.162;9.470;2023-03-18T13:53:37;95983.88;;;15.97;47.11
55271;BME280;41132;47.162;9.470;2023-03-18T13:56:05;95980.19;;;15.92;46.96
55271;BME280;41132;47.162;9.470;2023-03-18T13:58:50;95970.00;;;15.89;47.61
55271;BME280;41132;47.162;9.470;2023-03-18T14:01:30;95977.16;;;15.95;47.83
55271;BME280;41132;47.162;9.470;2023-03-18T14:04:25;95972.44;;;15.83;47.60
55271;BME280;41132;47.162;9.470;2023-03-18T14:07:20;95975.50;;;15.87;48.15
55271;BME280;41132;47.162;9.470;2023-03-18T14:20:20;95956.13;;;15.73;48.16
55271;BME280;41132;47.162;9.470;2023-03-18T14:25:42;95962.66;;;15.77;48.24
55271;BME280;41132;47.162;9.470;2023-03-18T14:33:14;95959.22;;;15.83;50.11
55271;BME280;41132;47.162;9.470;2023-03-18T14:35:57;95967.53;;;15.80;50.36
55271;BME280;41132;47.162;9.470;2023-03-18T14:38:24;95959.03;;;15.78;51.21
55271;BME280;41132;47.162;9.470;2023-03-18T14:40:54;95962.25;;;15.87;51.42
55271;BME280;41132;47.162;9.470;2023-03-18T14:46:37;95962.28;;;16.14;50.21
55271;BME280;41132;47.162;9.470;2023-03-18T14:49:32;95955.56;;;15.98;49.76
55271;BME280;41132;47.162;9.470;2023-03-18T14:52:32;95950.28;;;15.91;51.11
55271;BME280;41132;47.162;9.470;2023-03-18T14:55:00;95942.75;;;15.95;51.88
55271;BME280;41132;47.162;9.470;2023-03-18T14:57:26;95941.31;;;15.85;51.09
55271;BME280;41132;47.162;9.470;2023-03-18T14:59:51;95944.16;;;15.91;51.80
55271;BME280;41132;47.162;9.470;2023-03-18T15:02:25;95943.34;;;15.90;51.73
55271;BME280;41132;47.162;9.470;2023-03-18T15:04:54;95941.94;;;15.88;51.69
55271;BME280;41132;47.162;9.470;2023-03-18T15:07:30;95941.69;;;15.82;51.87
55271;BME280;41132;47.162;9.470;2023-03-18T15:09:56;95941.94;;;15.81;50.83
55271;BME280;41132;47.162;9.470;2023-03-18T15:12:26;95940.69;;;15.77;52.34